sensor_id;sensor_type;location;lat;lon;timestamp;pressure;altitude;pressure_sealevel;temperature;humidity
74327;BME280;62745;51.060;13.786;2022-12-07T00:01:37;100123.69;;;2.29;94.48
74327;BME280;62745;51.060;13.786;2022-12-07T00:04:04;100113.00;;;2.31;93.69
74327;BME280;62745;51.060;13.786;2022-12-07T00:06:33;100118.81;;;2.34;93.41
74327;BME280;62745;51.060;13.786;2022-12-07T00:08:59;100110.78;;;2.36;92.67
74327;BME280;62745;51.060;13.786;2022-12-07T00:11:25;100121.59;;;2.33;93.15
74327;BME280;62745;51.060;13.786;2022-12-07T00:13:57;100121.88;;;2.30;93.44
74327;BME280;62745;51.060;13.786;2022-12-07T00:16:27;100130.19;;;2.35;93.58
74327;BME280;62745;51.060;13.786;2022-12-07T00:18:53;100116.06;;;2.26;91.79
74327;BME280;62745;51.060;13.786;2022-12-07T00:21:21;100121.63;;;2.23;91.78
74327;BME280;62745;51.060;13.786;2022-12-07T00:23:48;100111.47;;;2.28;93.24
74327;BME280;62745;51.060;13.786;2022-12-07T00:26:19;100102.31;;;2.32;93.13
74327;BME280;62745;51.060;13.786;2022-12-07T00:28:50;100094.00;;;2.37;92.56
74327;BME280;62745;51.060;13.786;2022-12-07T00:31:17;100095.22;;;2.33;92.99
74327;BME280;62745;51.060;13.786;2022-12-07T00:33:43;100093.72;;;2.30;92.60
74327;BME280;62745;51.060;13.786;2022-12-07T00:36:15;100107.47;;;2.24;92.29
74327;BME280;62745;51.060;13.786;2022-12-07T00:38:41;100092.78;;;2.22;92.33
74327;BME280;62745;51.060;13.786;2022-12-07T00:41:11;100094.97;;;2.26;92.90
74327;BME280;62745;51.060;13.786;2022-12-07T00:43:38;100088.19;;;2.24;92.87
74327;BME280;62745;51.060;13.786;2022-12-07T00:46:04;100089.72;;;2.26;92.40
74327;BME280;62745;51.060;13.786;2022-12-07T00:48:29;100096.78;;;2.16;91.90
74327;BME280;62745;51.060;13.786;2022-12-07T00:50:54;100073.66;;;2.20;91.10
74327;BME280;62745;51.060;13.786;2022-12-07T00:53:20;100085.84;;;2.21;92.59
74327;BME280;62745;51.060;13.786;2022-12-07T00:55:46;100088.28;;;2.32;93.03
74327;BME280;62745;51.060;13.786;2022-12-07T00:58:11;100086.78;;;2.29;91.33
74327;BME280;62745;51.060;13.786;2022-12-07T01:00:38;100072.25;;;2.16;91.99
74327;BME280;62745;51.060;13.786;2022-12-07T01:03:05;100085.66;;;2.32;92.49
74327;BME280;62745;51.060;13.786;2022-12-07T01:05:30;100082.63;;;2.27;91.38
74327;BME280;62745;51.060;13.786;2022-12-07T01:07:56;100083.84;;;2.32;91.97
74327;BME280;62745;51.060;13.786;2022-12-07T01:10:21;100082.47;;;2.28;92.23
74327;BME280;62745;51.060;13.786;2022-12-07T01:12:47;100079.59;;;2.22;92.00
74327;BME280;62745;51.060;13.786;2022-12-07T01:15:12;100086.34;;;2.34;91.09
74327;BME280;62745;51.060;13.786;2022-12-07T01:17:38;100089.13;;;2.32;92.02
74327;BME280;62745;51.060;13.786;2022-12-07T01:20:04;100089.13;;;2.32;92.37
74327;BME280;62745;51.060;13.786;2022-12-07T01:22:29;100087.41;;;2.51;92.79
74327;BME280;62745;51.060;13.786;2022-12-07T01:24:54;100082.03;;;2.42;91.48
74327;BME280;62745;51.060;13.786;2022-12-07T01:27:20;100087.31;;;2.42;91.26
74327;BME280;62745;51.060;13.786;2022-12-07T01:29:45;100074.56;;;2.38;90.01
74327;BME280;62745;51.060;13.786;2022-12-07T01:32:10;100078.41;;;2.44;90.60
74327;BME280;62745;51.060;13.786;2022-12-07T01:34:36;100081.16;;;2.52;90.87
74327;BME280;62745;51.060;13.786;2022-12-07T01:37:01;100076.50;;;2.36;90.97
74327;BME280;62745;51.060;13.786;2022-12-07T01:39:26;100079.84;;;2.38;90.24
74327;BME280;62745;51.060;13.786;2022-12-07T01:41:52;100072.47;;;2.32;91.12
74327;BME280;62745;51.060;13.786;2022-12-07T01:44:23;100075.25;;;2.40;91.01
74327;BME280;62745;51.060;13.786;2022-12-07T01:49:38;100079.16;;;2.36;90.76
74327;BME280;62745;51.060;13.786;2022-12-07T01:52:13;100077.59;;;2.43;91.06
74327;BME280;62745;51.060;13.786;2022-12-07T01:54:40;100076.38;;;2.37;91.38
74327;BME280;62745;51.060;13.786;2022-12-07T01:57:07;100084.44;;;2.36;91.31
74327;BME280;62745;51.060;13.786;2022-12-07T01:59:33;100082.31;;;2.39;90.94
74327;BME280;62745;51.060;13.786;2022-12-07T02:02:02;100083.72;;;2.34;90.79
74327;BME280;62745;51.060;13.786;2022-12-07T02:04:31;100085.94;;;2.29;90.81
74327;BME280;62745;51.060;13.786;2022-12-07T02:06:57;100084.59;;;2.25;90.97
74327;BME280;62745;51.060;13.786;2022-12-07T02:09:23;100082.09;;;2.23;91.31
74327;BME280;62745;51.060;13.786;2022-12-07T02:11:49;100080.69;;;2.29;91.12
74327;BME280;62745;51.060;13.786;2022-12-07T02:14:15;100076.69;;;2.25;91.53
74327;BME280;62745;51.060;13.786;2022-12-07T02:22:18;100075.16;;;2.13;92.48
74327;BME280;62745;51.060;13.786;2022-12-07T02:25:08;100085.59;;;2.04;92.70
74327;BME280;62745;51.060;13.786;2022-12-07T02:30:17;100053.59;;;1.80;92.10
74327;BME280;62745;51.060;13.786;2022-12-07T02:33:11;100074.25;;;1.94;93.45
74327;BME280;62745;51.060;13.786;2022-12-07T05:07:04;99926.34;;;1.42;89.15
74327;BME280;62745;51.060;13.786;2022-12-07T05:09:29;99926.41;;;1.70;87.82
74327;BME280;62745;51.060;13.786;2022-12-07T05:11:55;99917.00;;;2.04;85.78
74327;BME280;62745;51.060;13.786;2022-12-07T05:14:20;99920.28;;;1.79;86.25
74327;BME280;62745;51.060;13.786;2022-12-07T05:16:48;99937.09;;;1.68;87.11
74327;BME280;62745;51.060;13.786;2022-12-07T05:19:15;99900.13;;;1.50;87.66
74327;BME280;62745;51.060;13.786;2022-12-07T05:21:40;99927.78;;;1.64;88.70
74327;BME280;62745;51.060;13.786;2022-12-07T05:24:07;99911.38;;;1.33;90.79
74327;BME280;62745;51.060;13.786;2022-12-07T05:26:33;99934.94;;;1.35;90.41
74327;BME280;62745;51.060;13.786;2022-12-07T05:28:59;99923.00;;;1.40;91.09
74327;BME280;62745;51.060;13.786;2022-12-07T05:31:25;99942.53;;;1.47;90.91
74327;BME280;62745;51.060;13.786;2022-12-07T05:33:51;99937.22;;;1.67;90.33
74327;BME280;62745;51.060;13.786;2022-12-07T05:36:16;99919.66;;;1.58;91.47
74327;BME280;62745;51.060;13.786;2022-12-07T05:38:42;99917.78;;;1.77;90.41
74327;BME280;62745;51.060;13.786;2022-12-07T05:41:08;99911.91;;;1.93;90.55
74327;BME280;62745;51.060;13.786;2022-12-07T05:43:54;99907.47;;;1.94;89.52
74327;BME280;62745;51.060;13.786;2022-12-07T05:46:19;99910.22;;;2.02;89.19
74327;BME280;62745;51.060;13.786;2022-12-07T05:48:45;99908.50;;;2.10;89.89
74327;BME280;62745;51.060;13.786;2022-12-07T05:51:10;99885.59;;;1.84;89.05
74327;BME280;62745;51.060;13.786;2022-12-07T05:53:35;99902.72;;;1.97;89.01
74327;BME280;62745;51.060;13.786;2022-12-07T05:56:01;99909.00;;;2.24;89.18
74327;BME280;62745;51.060;13.786;2022-12-07T05:58:26;99902.00;;;2.32;86.72
74327;BME280;62745;51.060;13.786;2022-12-07T06:01:10;99884.97;;;2.27;87.79
74327;BME280;62745;51.060;13.786;2022-12-07T06:03:35;99879.03;;;1.97;88.33
74327;BME280;62745;51.060;13.786;2022-12-07T06:06:00;99891.19;;;2.35;88.59
74327;BME280;62745;51.060;13.786;2022-12-07T06:08:26;99891.75;;;2.29;89.18
74327;BME280;62745;51.060;13.786;2022-12-07T06:10:51;99879.66;;;2.36;88.62
74327;BME280;62745;51.060;13.786;2022-12-07T06:13:36;99885.31;;;2.59;85.08
74327;BME280;62745;51.060;13.786;2022-12-07T06:16:01;99890.22;;;2.54;83.40
74327;BME280;62745;51.060;13.786;2022-12-07T06:18:27;99883.53;;;2.32;87.73
74327;BME280;62745;51.060;13.786;2022-12-07T06:20:52;99890.06;;;2.38;87.95
74327;BME280;62745;51.060;13.786;2022-12-07T06:23:17;99854.97;;;2.10;85.29
74327;BME280;62745;51.060;13.786;2022-12-07T06:25:45;99862.72;;;2.11;86.58
74327;BME280;62745;51.060;13.786;2022-12-07T06:28:10;99867.69;;;2.15;86.76
74327;BME280;62745;51.060;13.786;2022-12-07T06:30:36;99873.56;;;2.36;84.22
74327;BME280;62745;51.060;13.786;2022-12-07T06:33:01;99873.41;;;2.37;83.75
74327;BME280;62745;51.060;13.786;2022-12-07T06:35:26;99870.53;;;2.31;82.49
74327;BME280;62745;51.060;13.786;2022-12-07T06:37:52;99862.09;;;2.27;83.13
74327;BME280;62745;51.060;13.786;2022-12-07T06:40:17;99880.09;;;2.50;82.93
74327;BME280;62745;51.060;13.786;2022-12-07T06:42:42;99882.75;;;2.50;83.44
74327;BME280;62745;51.060;13.786;2022-12-07T06:45:07;99871.81;;;2.45;83.19
74327;BME280;62745;51.060;13.786;2022-12-07T06:47:36;99852.91;;;2.31;83.43
74327;BME280;62745;51.060;13.786;2022-12-07T06:50:02;99876.13;;;2.46;83.51
74327;BME280;62745;51.060;13.786;2022-12-07T06:52:30;99880.03;;;2.59;83.44
74327;BME280;62745;51.060;13.786;2022-12-07T06:54:59;99875.66;;;2.50;83.59
74327;BME280;62745;51.060;13.786;2022-12-07T06:57:24;99869.19;;;2.45;84.36
74327;BME280;62745;51.060;13.786;2022-12-07T06:59:52;99855.22;;;2.34;84.09
74327;BME280;62745;51.060;13.786;2022-12-07T07:02:18;99844.47;;;2.28;85.23
74327;BME280;62745;51.060;13.786;2022-12-07T07:04:43;99859.91;;;2.23;86.08
74327;BME280;62745;51.060;13.786;2022-12-07T07:07:08;99877.91;;;2.45;86.92
74327;BME280;62745;51.060;13.786;2022-12-07T07:09:34;99871.28;;;2.23;88.29
74327;BME280;62745;51.060;13.786;2022-12-07T07:11:59;99864.69;;;2.09;89.55
74327;BME280;62745;51.060;13.786;2022-12-07T07:14:24;99894.56;;;2.18;90.54
74327;BME280;62745;51.060;13.786;2022-12-07T07:16:50;99872.91;;;2.06;90.50
74327;BME280;62745;51.060;13.786;2022-12-07T07:19:15;99893.38;;;2.13;91.33
74327;BME280;62745;51.060;13.786;2022-12-07T07:21:40;99881.50;;;1.99;92.05
74327;BME280;62745;51.060;13.786;2022-12-07T07:24:06;99876.03;;;1.83;92.95
74327;BME280;62745;51.060;13.786;2022-12-07T07:26:34;99885.88;;;1.90;94.04
74327;BME280;62745;51.060;13.786;2022-12-07T07:28:59;99888.00;;;1.67;94.03
74327;BME280;62745;51.060;13.786;2022-12-07T07:31:25;99900.19;;;1.78;95.05
74327;BME280;62745;51.060;13.786;2022-12-07T07:33:53;99896.28;;;1.82;94.86
74327;BME280;62745;51.060;13.786;2022-12-07T07:36:18;99859.88;;;1.68;95.37
74327;BME280;62745;51.060;13.786;2022-12-07T07:38:43;99897.16;;;2.00;95.10
74327;BME280;62745;51.060;13.786;2022-12-07T07:41:09;99911.56;;;2.33;94.41
74327;BME280;62745;51.060;13.786;2022-12-07T07:43:34;99895.28;;;2.20;94.58
74327;BME280;62745;51.060;13.786;2022-12-07T07:46:02;99880.34;;;2.11;94.51
74327;BME280;62745;51.060;13.786;2022-12-07T07:48:27;99904.69;;;2.23;94.77
74327;BME280;62745;51.060;13.786;2022-12-07T07:50:52;99904.47;;;2.34;93.86
74327;BME280;62745;51.060;13.786;2022-12-07T07:53:18;99907.56;;;2.29;94.03
74327;BME280;62745;51.060;13.786;2022-12-07T07:55:53;99905.38;;;2.25;93.40
74327;BME280;62745;51.060;13.786;2022-12-07T07:58:21;99909.00;;;2.24;93.06
74327;BME280;62745;51.060;13.786;2022-12-07T08:00:46;99907.50;;;2.21;93.05
74327;BME280;62745;51.060;13.786;2022-12-07T08:03:11;99900.94;;;2.25;93.05
74327;BME280;62745;51.060;13.786;2022-12-07T08:05:37;99899.38;;;2.50;91.95
74327;BME280;62745;51.060;13.786;2022-12-07T08:08:03;99892.91;;;2.45;92.10
74327;BME280;62745;51.060;13.786;2022-12-07T08:10:28;99879.94;;;2.51;92.08
74327;BME280;62745;51.060;13.786;2022-12-07T08:12:53;99911.84;;;2.58;92.40
74327;BME280;62745;51.060;13.786;2022-12-07T08:15:40;99906.88;;;2.55;91.57
74327;BME280;62745;51.060;13.786;2022-12-07T08:18:06;99894.50;;;2.55;92.53
74327;BME280;62745;51.060;13.786;2022-12-07T08:20:33;99914.69;;;2.64;91.80
74327;BME280;62745;51.060;13.786;2022-12-07T08:23:02;99888.84;;;2.50;91.04
74327;BME280;62745;51.060;13.786;2022-12-07T08:25:31;99905.44;;;2.78;91.68
74327;BME280;62745;51.060;13.786;2022-12-07T08:27:56;99873.56;;;2.54;90.99
74327;BME280;62745;51.060;13.786;2022-12-07T08:30:21;99859.41;;;2.55;90.93
74327;BME280;62745;51.060;13.786;2022-12-07T08:32:48;99906.72;;;2.74;90.51
74327;BME280;62745;51.060;13.786;2022-12-07T08:35:16;99881.91;;;2.67;89.72
74327;BME280;62745;51.060;13.786;2022-12-07T08:37:41;99909.72;;;2.79;90.60
74327;BME280;62745;51.060;13.786;2022-12-07T08:40:08;99893.00;;;2.88;90.37
74327;BME280;62745;51.060;13.786;2022-12-07T08:42:34;99903.25;;;2.91;90.30
74327;BME280;62745;51.060;13.786;2022-12-07T08:45:06;99900.25;;;2.86;89.86
74327;BME280;62745;51.060;13.786;2022-12-07T08:47:33;99903.78;;;2.95;88.98
74327;BME280;62745;51.060;13.786;2022-12-07T08:49:59;99902.19;;;2.84;89.19
74327;BME280;62745;51.060;13.786;2022-12-07T08:52:31;99901.81;;;2.97;89.28
74327;BME280;62745;51.060;13.786;2022-12-07T08:54:58;99869.94;;;2.90;89.76
74327;BME280;62745;51.060;13.786;2022-12-07T08:57:25;99878.69;;;2.91;88.28
74327;BME280;62745;51.060;13.786;2022-12-07T08:59:52;99875.56;;;3.13;88.30
74327;BME280;62745;51.060;13.786;2022-12-07T09:02:17;99878.13;;;3.23;87.55
74327;BME280;62745;51.060;13.786;2022-12-07T09:04:43;99890.84;;;3.27;88.02
74327;BME280;62745;51.060;13.786;2022-12-07T09:07:08;99873.91;;;3.12;88.22
74327;BME280;62745;51.060;13.786;2022-12-07T09:09:34;99872.53;;;3.26;87.35
74327;BME280;62745;51.060;13.786;2022-12-07T09:12:02;99890.31;;;3.24;86.84
74327;BME280;62745;51.060;13.786;2022-12-07T09:14:27;99887.84;;;3.22;86.64
74327;BME280;62745;51.060;13.786;2022-12-07T09:16:54;99877.97;;;3.24;86.71
74327;BME280;62745;51.060;13.786;2022-12-07T09:19:19;99864.59;;;3.26;86.96
74327;BME280;62745;51.060;13.786;2022-12-07T09:21:48;99894.94;;;3.48;85.72
74327;BME280;62745;51.060;13.786;2022-12-07T09:24:13;99875.13;;;3.44;85.65
74327;BME280;62745;51.060;13.786;2022-12-07T09:26:38;99868.84;;;3.71;84.92
74327;BME280;62745;51.060;13.786;2022-12-07T09:29:05;99908.25;;;3.90;83.69
74327;BME280;62745;51.060;13.786;2022-12-07T09:31:40;99856.66;;;3.52;83.57
74327;BME280;62745;51.060;13.786;2022-12-07T09:34:08;99870.91;;;3.59;83.13
74327;BME280;62745;51.060;13.786;2022-12-07T09:36:34;99902.38;;;3.78;83.81
74327;BME280;62745;51.060;13.786;2022-12-07T09:38:59;99895.13;;;3.80;83.64
74327;BME280;62745;51.060;13.786;2022-12-07T09:41:26;99908.94;;;4.00;83.98
74327;BME280;62745;51.060;13.786;2022-12-07T09:44:03;99918.91;;;4.14;83.55
74327;BME280;62745;51.060;13.786;2022-12-07T09:46:30;99907.56;;;3.88;83.28
74327;BME280;62745;51.060;13.786;2022-12-07T09:49:01;99899.09;;;3.84;82.10
74327;BME280;62745;51.060;13.786;2022-12-07T09:51:26;99905.09;;;3.86;82.62
74327;BME280;62745;51.060;13.786;2022-12-07T09:53:53;99906.34;;;4.16;83.24
74327;BME280;62745;51.060;13.786;2022-12-07T09:56:21;99903.69;;;4.08;82.39
74327;BME280;62745;51.060;13.786;2022-12-07T09:58:48;99902.25;;;4.22;82.56
74327;BME280;62745;51.060;13.786;2022-12-07T10:01:17;99894.38;;;4.38;82.67
74327;BME280;62745;51.060;13.786;2022-12-07T10:03:59;99884.44;;;4.24;81.98
74327;BME280;62745;51.060;13.786;2022-12-07T10:06:29;99886.63;;;4.37;81.65
74327;BME280;62745;51.060;13.786;2022-12-07T10:09:21;99872.06;;;4.41;80.29
74327;BME280;62745;51.060;13.786;2022-12-07T10:12:08;99892.06;;;4.43;80.58
74327;BME280;62745;51.060;13.786;2022-12-07T10:14:37;99889.13;;;4.63;80.00
74327;BME280;62745;51.060;13.786;2022-12-07T10:17:57;99888.34;;;4.87;79.04
74327;BME280;62745;51.060;13.786;2022-12-07T10:20:25;99879.59;;;5.10;77.92
74327;BME280;62745;51.060;13.786;2022-12-07T10:23:14;99886.81;;;5.49;77.83
74327;BME280;62745;51.060;13.786;2022-12-07T10:25:40;99875.28;;;5.26;77.79
74327;BME280;62745;51.060;13.786;2022-12-07T10:34:00;99866.69;;;4.75;79.37
74327;BME280;62745;51.060;13.786;2022-12-07T10:36:37;99862.03;;;4.77;79.43
74327;BME280;62745;51.060;13.786;2022-12-07T10:39:23;99863.03;;;4.84;79.86
74327;BME280;62745;51.060;13.786;2022-12-07T10:42:18;99865.97;;;4.48;79.88
74327;BME280;62745;51.060;13.786;2022-12-07T10:44:44;99850.09;;;4.40;81.05
74327;BME280;62745;51.060;13.786;2022-12-07T10:47:14;99884.44;;;4.32;81.45
74327;BME280;62745;51.060;13.786;2022-12-07T10:52:52;99869.59;;;4.39;81.77
74327;BME280;62745;51.060;13.786;2022-12-07T11:01:31;99859.47;;;4.35;82.55
74327;BME280;62745;51.060;13.786;2022-12-07T11:13:09;99844.94;;;4.31;83.67
74327;BME280;62745;51.060;13.786;2022-12-07T11:18:28;99841.66;;;4.37;82.92
74327;BME280;62745;51.060;13.786;2022-12-07T11:23:48;99837.03;;;4.39;82.76
74327;BME280;62745;51.060;13.786;2022-12-07T11:37:49;99828.69;;;4.17;83.66
74327;BME280;62745;51.060;13.786;2022-12-07T11:40:34;99839.88;;;3.95;86.46
74327;BME280;62745;51.060;13.786;2022-12-07T11:43:17;99835.91;;;3.31;90.76
74327;BME280;62745;51.060;13.786;2022-12-07T11:45:50;99813.88;;;2.88;92.93
74327;BME280;62745;51.060;13.786;2022-12-07T11:48:30;99833.53;;;2.94;94.31
74327;BME280;62745;51.060;13.786;2022-12-07T11:50:59;99829.28;;;3.01;94.01
74327;BME280;62745;51.060;13.786;2022-12-07T11:53:29;99839.00;;;3.00;93.43
74327;BME280;62745;51.060;13.786;2022-12-07T11:56:02;99842.56;;;3.09;95.16
74327;BME280;62745;51.060;13.786;2022-12-07T11:58:44;99848.41;;;3.21;95.40
74327;BME280;62745;51.060;13.786;2022-12-07T12:04:05;99831.88;;;3.45;96.53
74327;BME280;62745;51.060;13.786;2022-12-07T12:06:41;99832.13;;;3.93;95.47
74327;BME280;62745;51.060;13.786;2022-12-07T12:09:29;99835.53;;;3.86;95.31
74327;BME280;62745;51.060;13.786;2022-12-07T12:15:08;99827.91;;;3.75;95.94
74327;BME280;62745;51.060;13.786;2022-12-07T12:20:51;99812.25;;;3.81;95.29
74327;BME280;62745;51.060;13.786;2022-12-07T12:25:59;99820.38;;;3.96;95.49
74327;BME280;62745;51.060;13.786;2022-12-07T12:29:33;99804.34;;;3.89;94.10
74327;BME280;62745;51.060;13.786;2022-12-07T12:31:35;99828.69;;;4.09;94.33
74327;BME280;62745;51.060;13.786;2022-12-07T12:34:04;99828.50;;;4.03;96.51
74327;BME280;62745;51.060;13.786;2022-12-07T12:36:49;99814.19;;;3.71;94.65
74327;BME280;62745;51.060;13.786;2022-12-07T12:39:16;99825.09;;;3.76;94.50
74327;BME280;62745;51.060;13.786;2022-12-07T12:47:00;99816.19;;;3.77;91.56
74327;BME280;62745;51.060;13.786;2022-12-07T12:49:35;99831.31;;;3.67;90.40
74327;BME280;62745;51.060;13.786;2022-12-07T12:54:31;99809.28;;;3.50;88.16
74327;BME280;62745;51.060;13.786;2022-12-07T12:57:21;99812.16;;;3.57;89.18
74327;BME280;62745;51.060;13.786;2022-12-07T13:02:39;99820.19;;;3.47;89.48
74327;BME280;62745;51.060;13.786;2022-12-07T13:15:42;99822.88;;;2.42;95.84
74327;BME280;62745;51.060;13.786;2022-12-07T13:20:53;99815.84;;;2.15;97.00
74327;BME280;62745;51.060;13.786;2022-12-07T13:25:59;99817.50;;;2.16;98.13
74327;BME280;62745;51.060;13.786;2022-12-07T13:28:32;99827.19;;;2.16;97.45
74327;BME280;62745;51.060;13.786;2022-12-07T13:31:17;99818.53;;;2.05;97.91
74327;BME280;62745;51.060;13.786;2022-12-07T13:33:45;99824.88;;;2.13;98.50
74327;BME280;62745;51.060;13.786;2022-12-07T13:36:21;99813.59;;;2.02;99.37
74327;BME280;62745;51.060;13.786;2022-12-07T13:38:56;99814.44;;;1.93;98.45
74327;BME280;62745;51.060;13.786;2022-12-07T13:41:24;99815.38;;;2.02;98.91
74327;BME280;62745;51.060;13.786;2022-12-07T13:44:04;99821.78;;;2.17;99.01
74327;BME280;62745;51.060;13.786;2022-12-07T13:46:44;99796.78;;;2.03;98.25
74327;BME280;62745;51.060;13.786;2022-12-07T13:49:25;99805.75;;;2.10;98.42
74327;BME280;62745;51.060;13.786;2022-12-07T13:51:51;99825.19;;;2.27;98.20
74327;BME280;62745;51.060;13.786;2022-12-07T13:54:17;99818.88;;;2.38;98.78
74327;BME280;62745;51.060;13.786;2022-12-07T13:56:43;99817.06;;;2.56;99.54
74327;BME280;62745;51.060;13.786;2022-12-07T13:59:18;99813.00;;;2.44;97.39
74327;BME280;62745;51.060;13.786;2022-12-07T14:01:47;99815.25;;;2.39;96.51
74327;BME280;62745;51.060;13.786;2022-12-07T14:04:31;99825.66;;;2.40;97.39
74327;BME280;62745;51.060;13.786;2022-12-07T14:06:56;99807.34;;;2.39;95.25
74327;BME280;62745;51.060;13.786;2022-12-07T14:09:26;99823.16;;;2.57;96.71
74327;BME280;62745;51.060;13.786;2022-12-07T14:11:54;99791.13;;;2.52;95.76
74327;BME280;62745;51.060;13.786;2022-12-07T14:14:23;99801.69;;;2.52;95.80
74327;BME280;62745;51.060;13.786;2022-12-07T14:17:00;99813.44;;;2.75;95.57
74327;BME280;62745;51.060;13.786;2022-12-07T14:22:29;99821.03;;;2.78;96.52
74327;BME280;62745;51.060;13.786;2022-12-07T14:27:40;99815.41;;;2.99;94.63
74327;BME280;62745;51.060;13.786;2022-12-07T14:30:16;99806.44;;;3.10;96.04
74327;BME280;62745;51.060;13.786;2022-12-07T14:32:42;99806.31;;;3.45;95.77
74327;BME280;62745;51.060;13.786;2022-12-07T14:35:14;99806.16;;;3.47;94.26
74327;BME280;62745;51.060;13.786;2022-12-07T14:37:41;99813.22;;;3.72;94.22
74327;BME280;62745;51.060;13.786;2022-12-07T14:40:09;99808.09;;;3.79;94.60
74327;BME280;62745;51.060;13.786;2022-12-07T14:42:37;99780.13;;;4.18;89.92
74327;BME280;62745;51.060;13.786;2022-12-07T14:45:03;99793.84;;;4.06;93.22
74327;BME280;62745;51.060;13.786;2022-12-07T14:47:28;99781.13;;;3.67;95.96
74327;BME280;62745;51.060;13.786;2022-12-07T14:49:53;99781.78;;;3.61;95.60
74327;BME280;62745;51.060;13.786;2022-12-07T14:52:28;99779.72;;;3.81;95.27
74327;BME280;62745;51.060;13.786;2022-12-07T14:54:55;99790.13;;;3.82;96.18
74327;BME280;62745;51.060;13.786;2022-12-07T14:57:20;99797.69;;;3.77;95.25
74327;BME280;62745;51.060;13.786;2022-12-07T14:59:46;99771.72;;;3.56;95.85
74327;BME280;62745;51.060;13.786;2022-12-07T15:02:13;99806.63;;;3.76;94.48
74327;BME280;62745;51.060;13.786;2022-12-07T15:04:39;99787.56;;;3.65;95.09
74327;BME280;62745;51.060;13.786;2022-12-07T15:07:08;99813.00;;;4.08;92.52
74327;BME280;62745;51.060;13.786;2022-12-07T15:09:34;99807.56;;;4.17;92.77
74327;BME280;62745;51.060;13.786;2022-12-07T15:12:00;99797.44;;;3.97;93.79
74327;BME280;62745;51.060;13.786;2022-12-07T15:14:25;99800.28;;;4.03;90.85
74327;BME280;62745;51.060;13.786;2022-12-07T15:16:51;99809.06;;;4.36;89.92
74327;BME280;62745;51.060;13.786;2022-12-07T15:19:23;99791.47;;;3.86;91.88
74327;BME280;62745;51.060;13.786;2022-12-07T15:21:50;99804.41;;;4.14;92.11
74327;BME280;62745;51.060;13.786;2022-12-07T15:24:16;99802.53;;;3.90;90.68
74327;BME280;62745;51.060;13.786;2022-12-07T15:26:41;99780.38;;;3.41;92.06
74327;BME280;62745;51.060;13.786;2022-12-07T15:29:07;99796.22;;;3.41;91.10
74327;BME280;62745;51.060;13.786;2022-12-07T15:31:40;99805.31;;;3.46;90.59
74327;BME280;62745;51.060;13.786;2022-12-07T15:34:06;99784.44;;;3.27;90.26
74327;BME280;62745;51.060;13.786;2022-12-07T15:36:32;99809.44;;;3.41;90.54
74327;BME280;62745;51.060;13.786;2022-12-07T15:38:58;99790.22;;;3.30;90.29
74327;BME280;62745;51.060;13.786;2022-12-07T15:41:24;99802.84;;;3.45;89.94
74327;BME280;62745;51.060;13.786;2022-12-07T15:43:49;99800.53;;;3.50;89.95
74327;BME280;62745;51.060;13.786;2022-12-07T15:46:36;99805.72;;;3.59;92.39
74327;BME280;62745;51.060;13.786;2022-12-07T15:49:04;99810.59;;;3.80;91.29
74327;BME280;62745;51.060;13.786;2022-12-07T15:51:29;99800.69;;;3.82;91.11
74327;BME280;62745;51.060;13.786;2022-12-07T15:53:55;99795.19;;;3.33;91.61
74327;BME280;62745;51.060;13.786;2022-12-07T15:56:22;99801.19;;;3.44;91.01
74327;BME280;62745;51.060;13.786;2022-12-07T15:58:47;99794.50;;;3.31;91.51
74327;BME280;62745;51.060;13.786;2022-12-07T16:01:14;99797.63;;;3.53;91.78
74327;BME280;62745;51.060;13.786;2022-12-07T16:03:39;99813.41;;;3.45;92.56
74327;BME280;62745;51.060;13.786;2022-12-07T16:06:06;99806.72;;;3.32;92.80
74327;BME280;62745;51.060;13.786;2022-12-07T16:08:31;99811.09;;;3.42;92.04
74327;BME280;62745;51.060;13.786;2022-12-07T16:10:56;99812.75;;;3.51;91.37
74327;BME280;62745;51.060;13.786;2022-12-07T16:13:21;99809.53;;;3.65;90.48
74327;BME280;62745;51.060;13.786;2022-12-07T16:15:47;99803.41;;;3.56;90.02
74327;BME280;62745;51.060;13.786;2022-12-07T16:18:12;99810.00;;;3.60;90.79
74327;BME280;62745;51.060;13.786;2022-12-07T16:20:38;99818.84;;;3.77;89.96
74327;BME280;62745;51.060;13.786;2022-12-07T16:23:03;99814.03;;;3.73;91.85
74327;BME280;62745;51.060;13.786;2022-12-07T16:25:29;99815.84;;;3.72;90.39
74327;BME280;62745;51.060;13.786;2022-12-07T16:27:54;99788.06;;;3.68;90.04
74327;BME280;62745;51.060;13.786;2022-12-07T16:30:19;99817.50;;;3.73;90.76
74327;BME280;62745;51.060;13.786;2022-12-07T16:32:45;99819.88;;;3.92;90.96
74327;BME280;62745;51.060;13.786;2022-12-07T16:35:10;99809.09;;;3.70;90.08
74327;BME280;62745;51.060;13.786;2022-12-07T16:37:36;99822.38;;;3.94;89.71
74327;BME280;62745;51.060;13.786;2022-12-07T16:40:02;99820.56;;;4.03;89.20
74327;BME280;62745;51.060;13.786;2022-12-07T16:42:31;99786.25;;;3.69;91.32
74327;BME280;62745;51.060;13.786;2022-12-07T16:44:57;99800.34;;;3.85;89.83
74327;BME280;62745;51.060;13.786;2022-12-07T16:47:22;99810.19;;;4.17;88.57
74327;BME280;62745;51.060;13.786;2022-12-07T16:49:47;99811.41;;;3.81;88.73
74327;BME280;62745;51.060;13.786;2022-12-07T16:52:21;99804.06;;;3.58;88.79
74327;BME280;62745;51.060;13.786;2022-12-07T16:54:47;99782.94;;;3.24;90.23
74327;BME280;62745;51.060;13.786;2022-12-07T16:57:13;99799.03;;;3.13;90.01
74327;BME280;62745;51.060;13.786;2022-12-07T16:59:38;99803.84;;;3.18;90.15
74327;BME280;62745;51.060;13.786;2022-12-07T17:02:04;99814.13;;;3.29;90.91
74327;BME280;62745;51.060;13.786;2022-12-07T17:04:31;99805.47;;;3.19;89.74
74327;BME280;62745;51.060;13.786;2022-12-07T17:06:57;99793.41;;;3.08;88.71
74327;BME280;62745;51.060;13.786;2022-12-07T17:09:23;99806.47;;;3.18;89.57
74327;BME280;62745;51.060;13.786;2022-12-07T17:11:48;99811.91;;;3.16;88.57
74327;BME280;62745;51.060;13.786;2022-12-07T17:14:13;99762.09;;;2.87;87.98